createdAt,value
2019-04-03T00:00:14.350Z,56.71
2019-04-03T00:01:14.322Z,56.40
2019-04-03T00:02:14.305Z,56.61
2019-04-03T00:03:14.295Z,56.51
2019-04-03T00:04:14.278Z,56.51
2019-04-03T00:05:14.306Z,56.27
2019-04-03T00:06:14.261Z,56.30
2019-04-03T00:07:14.329Z,56.40
2019-04-03T00:08:14.244Z,56.30
2019-04-03T00:09:14.252Z,56.17
2019-04-03T00:10:14.239Z,56.10
2019-04-03T00:11:14.228Z,56.40
2019-04-03T00:12:14.229Z,56.71
2019-04-03T00:13:14.203Z,56.51
2019-04-03T00:14:14.180Z,56.40
2019-04-03T00:15:14.282Z,56.51
2019-04-03T00:16:15.644Z,55.89
2019-04-03T00:17:15.290Z,56.71
2019-04-03T00:18:15.736Z,56.61
2019-04-03T00:19:14.124Z,56.51
2019-04-03T00:20:14.255Z,56.79
2019-04-03T00:21:14.104Z,56.61
2019-04-03T00:22:14.119Z,56.92
2019-04-03T00:23:14.073Z,56.61
2019-04-03T00:24:14.067Z,56.68
2019-04-03T00:25:14.073Z,56.71
2019-04-03T00:26:14.071Z,56.61
2019-04-03T00:27:14.031Z,56.99
2019-04-03T00:28:14.055Z,57.22
2019-04-03T00:29:14.064Z,57.22
2019-04-03T00:30:14.018Z,56.61
2019-04-03T00:31:14.092Z,56.71
2019-04-03T00:32:13.985Z,57.40
2019-04-03T00:33:14.039Z,57.32
2019-04-03T00:34:13.955Z,57.73
2019-04-03T00:35:13.950Z,57.43
2019-04-03T00:36:13.938Z,57.50
2019-04-03T00:37:14.079Z,57.53
2019-04-03T00:38:13.932Z,57.53
2019-04-03T00:39:13.904Z,57.22
2019-04-03T00:40:13.958Z,57.84
2019-04-03T00:41:13.887Z,57.22
2019-04-03T00:42:13.900Z,57.73
2019-04-03T00:43:13.863Z,57.32
2019-04-03T00:44:13.849Z,57.22
2019-04-03T00:45:13.841Z,57.63
2019-04-03T00:46:13.819Z,57.43
2019-04-03T00:47:13.838Z,57.93
2019-04-03T00:48:13.807Z,58.14
2019-04-03T00:49:13.911Z,58.14
2019-04-03T00:50:13.779Z,58.55
2019-04-03T00:51:13.790Z,58.45
2019-04-03T00:52:13.796Z,58.25
2019-04-03T00:53:13.882Z,58.34
2019-04-03T00:54:13.787Z,58.25
2019-04-03T00:55:13.790Z,58.34
2019-04-03T00:56:13.727Z,58.14
2019-04-03T00:57:13.835Z,58.34
2019-04-03T00:58:13.723Z,58.45
2019-04-03T00:59:13.687Z,58.45
2019-04-03T01:00:13.937Z,58.34
2019-04-03T01:01:13.663Z,58.48
2019-04-03T01:02:16.171Z,58.58
2019-04-03T01:03:13.656Z,58.48
2019-04-03T01:04:13.637Z,58.78
2019-04-03T01:05:13.617Z,58.48
2019-04-03T01:06:13.637Z,58.58
2019-04-03T01:07:13.596Z,58.98
2019-04-03T01:08:13.622Z,58.78
2019-04-03T01:09:13.587Z,58.98
2019-04-03T01:10:13.565Z,59.19
2019-04-03T01:11:13.594Z,58.98
2019-04-03T01:12:13.548Z,58.98
2019-04-03T01:13:13.547Z,58.98
2019-04-03T01:14:13.539Z,59.39
2019-04-03T01:15:13.509Z,58.68
2019-04-03T01:16:13.515Z,58.89
2019-04-03T01:17:13.486Z,58.98
2019-04-03T01:18:13.479Z,59.30
2019-04-03T01:19:13.481Z,58.98
2019-04-03T01:20:13.453Z,59.39
2019-04-03T01:21:13.445Z,59.39
2019-04-03T01:22:13.437Z,59.30
2019-04-03T01:23:13.422Z,59.09
2019-04-03T01:24:13.435Z,59.50
2019-04-03T01:25:13.412Z,58.89
2019-04-03T01:26:13.524Z,59.09
2019-04-03T01:27:13.387Z,59.60
2019-04-03T01:28:13.395Z,59.32
2019-04-03T01:29:13.407Z,59.42
2019-04-03T01:30:13.865Z,59.32
2019-04-03T01:31:14.912Z,59.12
2019-04-03T01:32:15.515Z,59.22
2019-04-03T01:33:13.319Z,59.73
2019-04-03T01:34:13.468Z,59.53
2019-04-03T01:35:13.305Z,59.50
2019-04-03T01:36:13.323Z,59.32
2019-04-03T01:37:13.279Z,59.83
2019-04-03T01:38:13.297Z,59.12
2019-04-03T01:39:13.269Z,59.73
2019-04-03T01:40:13.256Z,59.83
2019-04-03T01:41:13.238Z,59.83
2019-04-03T01:42:13.216Z,60.35
2019-04-03T01:43:13.207Z,60.24
2019-04-03T01:44:13.283Z,59.94
2019-04-03T01:45:13.192Z,60.03
2019-04-03T01:46:13.176Z,60.14
2019-04-03T01:47:13.210Z,60.35
2019-04-03T01:48:13.163Z,60.65
2019-04-03T01:49:13.168Z,60.55
2019-04-03T01:50:13.139Z,60.65
2019-04-03T01:51:13.128Z,60.55
2019-04-03T01:52:13.106Z,60.65
2019-04-03T01:53:13.100Z,60.75
2019-04-03T01:54:13.103Z,60.85
2019-04-03T01:55:13.227Z,60.85
2019-04-03T01:56:13.070Z,60.96
2019-04-03T01:57:13.134Z,60.96
2019-04-03T01:58:13.042Z,60.55
2019-04-03T01:59:13.054Z,60.65
2019-04-03T02:00:13.024Z,60.85
2019-04-03T02:01:13.015Z,60.44
2019-04-03T02:02:13.007Z,60.96
2019-04-03T02:03:13.067Z,60.65
2019-04-03T02:04:13.316Z,60.85
2019-04-03T02:05:13.324Z,60.85
2019-04-03T02:06:13.576Z,60.75
2019-04-03T02:07:14.839Z,60.96
2019-04-03T02:08:14.594Z,60.85
2019-04-03T02:09:15.345Z,60.75
2019-04-03T02:10:13.091Z,60.85
2019-04-03T02:11:12.942Z,60.75
2019-04-03T02:12:13.031Z,60.44
2019-04-03T02:13:12.883Z,60.55
2019-04-03T02:14:12.885Z,60.75
2019-04-03T02:15:12.935Z,60.44
2019-04-03T02:16:12.848Z,60.55
2019-04-03T02:17:12.841Z,60.85
2019-04-03T02:18:12.832Z,60.85
2019-04-03T02:19:12.883Z,60.85
2019-04-03T02:20:12.834Z,60.85
2019-04-03T02:21:12.800Z,60.55
2019-04-03T02:22:12.852Z,61.06
2019-04-03T02:23:12.938Z,60.75
2019-04-03T02:24:12.778Z,60.85
2019-04-03T02:25:12.777Z,60.75
2019-04-03T02:26:12.762Z,60.35
2019-04-03T02:27:12.734Z,60.44
2019-04-03T02:28:12.728Z,59.94
2019-04-03T02:29:12.714Z,60.35
2019-04-03T02:30:13.741Z,60.75
2019-04-03T02:31:12.695Z,60.35
2019-04-03T02:32:12.952Z,60.35
2019-04-03T02:33:12.937Z,60.55
2019-04-03T02:34:12.674Z,60.75
2019-04-03T02:35:12.727Z,60.35
2019-04-03T02:36:13.458Z,60.85
2019-04-03T02:37:16.505Z,61.47
2019-04-03T02:38:12.611Z,60.75
2019-04-03T02:39:12.648Z,60.78
2019-04-03T02:40:13.208Z,60.88
2019-04-03T02:41:12.613Z,61.19
2019-04-03T02:42:12.599Z,61.09
2019-04-03T02:43:14.242Z,61.40
2019-04-03T02:44:12.709Z,61.40
2019-04-03T02:45:12.550Z,61.29
2019-04-03T02:46:12.581Z,61.29
2019-04-03T02:47:12.761Z,61.29
2019-04-03T02:48:12.822Z,61.40
2019-04-03T02:49:12.525Z,61.09
2019-04-03T02:50:14.308Z,61.40
2019-04-03T02:51:12.590Z,61.29
2019-04-03T02:52:12.465Z,61.40
2019-04-03T02:53:12.564Z,61.40
2019-04-03T02:54:12.459Z,61.09
2019-04-03T02:55:12.426Z,61.09
2019-04-03T02:56:13.752Z,61.09
2019-04-03T02:57:16.180Z,61.29
2019-04-03T02:58:13.441Z,61.50
2019-04-03T02:59:12.384Z,61.09
2019-04-03T03:00:12.652Z,61.40
2019-04-03T03:01:12.392Z,61.29
2019-04-03T03:02:13.224Z,61.50
2019-04-03T03:03:16.097Z,61.29
2019-04-03T03:04:12.336Z,61.40
2019-04-03T03:05:12.332Z,61.40
2019-04-03T03:06:12.615Z,61.29
2019-04-03T03:07:12.296Z,61.40
2019-04-03T03:08:12.467Z,61.40
2019-04-03T03:09:13.624Z,61.29
2019-04-03T03:10:12.469Z,61.19
2019-04-03T03:11:12.488Z,61.70
2019-04-03T03:12:12.442Z,61.29
2019-04-03T03:13:12.273Z,61.09
2019-04-03T03:14:12.244Z,61.73
2019-04-03T03:15:12.736Z,61.22
2019-04-03T03:16:14.173Z,61.11
2019-04-03T03:17:12.399Z,61.93
2019-04-03T03:18:12.183Z,61.70
2019-04-03T03:19:12.163Z,61.80
2019-04-03T03:20:12.225Z,61.80
2019-04-03T03:21:13.393Z,61.93
2019-04-03T03:22:12.152Z,61.91
2019-04-03T03:23:12.134Z,61.80
2019-04-03T03:24:12.237Z,61.73
2019-04-03T03:25:12.098Z,61.73
2019-04-03T03:26:12.123Z,61.73
2019-04-03T03:27:12.263Z,61.73
2019-04-03T03:28:14.367Z,61.63
2019-04-03T03:29:17.714Z,61.73
2019-04-03T03:30:34.705Z,61.32
2019-04-03T03:31:13.059Z,61.32
2019-04-03T03:32:18.718Z,62.24
2019-04-03T03:33:28.785Z,61.32
2019-04-03T03:34:13.387Z,61.43
2019-04-03T03:35:16.886Z,62.76
2019-04-03T03:36:20.107Z,62.76
2019-04-03T03:37:13.395Z,62.76
2019-04-03T03:38:11.972Z,62.65
2019-04-03T03:39:12.171Z,62.24
2019-04-03T03:40:15.417Z,62.35
2019-04-03T03:41:12.059Z,62.45
2019-04-03T03:42:11.955Z,62.96
2019-04-03T03:43:12.266Z,62.96
2019-04-03T03:44:11.924Z,62.85
2019-04-03T03:45:12.448Z,62.85
2019-04-03T03:46:12.243Z,62.65
2019-04-03T03:47:11.898Z,62.85
2019-04-03T03:48:11.990Z,62.76
2019-04-03T03:49:16.274Z,62.85
2019-04-03T03:50:12.895Z,62.45
2019-04-03T03:51:11.994Z,63.06
2019-04-03T03:52:12.039Z,62.68
2019-04-03T03:53:12.822Z,62.68
2019-04-03T03:54:12.044Z,62.65
2019-04-03T03:55:11.792Z,62.65
2019-04-03T03:56:11.775Z,62.55
2019-04-03T03:57:12.127Z,62.68
2019-04-03T03:58:13.396Z,63.06
2019-04-03T03:59:12.023Z,63.20
2019-04-03T04:00:11.733Z,62.88
2019-04-03T04:01:11.909Z,63.20
2019-04-03T04:02:11.738Z,63.70
2019-04-03T04:03:12.079Z,63.60
2019-04-03T04:04:14.120Z,63.29
2019-04-03T04:05:12.342Z,63.50
2019-04-03T04:06:11.680Z,63.20
2019-04-03T04:07:11.678Z,63.20
2019-04-03T04:08:12.385Z,63.20
2019-04-03T04:09:13.619Z,62.99
2019-04-03T04:10:11.630Z,63.29
2019-04-03T04:11:11.632Z,64.12
2019-04-03T04:12:11.960Z,62.88
2019-04-03T04:13:15.047Z,63.70
2019-04-03T04:14:11.582Z,64.01
2019-04-03T04:15:11.568Z,63.91
2019-04-03T04:16:11.669Z,62.99
2019-04-03T04:17:15.283Z,63.91
2019-04-03T04:18:15.003Z,63.91
2019-04-03T04:19:11.512Z,64.22
2019-04-03T04:20:11.515Z,63.70
2019-04-03T04:21:11.870Z,64.01
2019-04-03T04:22:15.524Z,64.01
2019-04-03T04:23:12.749Z,64.12
2019-04-03T04:24:11.467Z,63.91
2019-04-03T04:25:11.465Z,64.12
2019-04-03T04:26:11.444Z,63.29
2019-04-03T04:27:11.433Z,63.20
2019-04-03T04:28:11.473Z,63.29
2019-04-03T04:29:11.524Z,63.43
2019-04-03T04:30:12.288Z,63.70
2019-04-03T04:31:12.742Z,63.70
2019-04-03T04:32:14.509Z,64.14
2019-04-03T04:33:11.401Z,64.25
2019-04-03T04:34:11.368Z,64.12
2019-04-03T04:35:11.348Z,64.01
2019-04-03T04:36:11.447Z,64.04
2019-04-03T04:37:11.363Z,64.01
2019-04-03T04:38:11.318Z,64.22
2019-04-03T04:39:11.378Z,64.65
2019-04-03T04:40:11.291Z,64.76
2019-04-03T04:41:11.373Z,64.53
2019-04-03T04:42:11.292Z,64.62
2019-04-03T04:43:11.265Z,64.12
2019-04-03T04:44:14.212Z,64.76
2019-04-03T04:45:11.893Z,64.22
2019-04-03T04:46:13.340Z,64.01
2019-04-03T04:47:11.447Z,64.01
2019-04-03T04:48:11.353Z,64.01
2019-04-03T04:49:11.220Z,63.70
2019-04-03T04:50:11.233Z,64.62
2019-04-03T04:51:11.170Z,64.83
2019-04-03T04:52:11.163Z,64.56
2019-04-03T04:53:11.172Z,64.25
2019-04-03T04:54:11.142Z,64.45
2019-04-03T04:55:11.135Z,64.62
2019-04-03T04:56:11.112Z,64.22
2019-04-03T04:57:11.104Z,64.45
2019-04-03T04:58:11.671Z,64.42
2019-04-03T04:59:11.748Z,64.62
2019-04-03T05:00:11.079Z,64.12
2019-04-03T05:01:11.143Z,64.53
2019-04-03T05:02:11.048Z,63.91
2019-04-03T05:03:11.081Z,64.22
2019-04-03T05:04:11.030Z,63.40
2019-04-03T05:05:11.042Z,63.70
2019-04-03T05:06:11.214Z,63.81
2019-04-03T05:07:11.033Z,64.12
2019-04-03T05:08:10.988Z,64.22
2019-04-03T05:09:11.097Z,63.81
2019-04-03T05:10:11.084Z,64.22
2019-04-03T05:11:10.953Z,64.32
2019-04-03T05:12:10.944Z,64.22
2019-04-03T05:13:10.951Z,64.32
2019-04-03T05:14:10.919Z,64.53
2019-04-03T05:15:10.943Z,64.22
2019-04-03T05:16:10.908Z,63.70
2019-04-03T05:17:11.005Z,63.70
2019-04-03T05:18:11.067Z,64.73
2019-04-03T05:19:17.638Z,64.01
2019-04-03T05:20:11.923Z,64.01
2019-04-03T05:21:11.030Z,64.12
2019-04-03T05:22:10.850Z,64.12
2019-04-03T05:23:11.985Z,64.32
2019-04-03T05:24:13.599Z,64.42
2019-04-03T05:25:11.007Z,64.01
2019-04-03T05:26:10.873Z,64.01
2019-04-03T05:27:10.799Z,64.12
2019-04-03T05:28:10.817Z,64.22
2019-04-03T05:29:10.863Z,64.22
2019-04-03T05:30:10.764Z,64.32
2019-04-03T05:31:10.970Z,64.42
2019-04-03T05:32:10.850Z,64.12
2019-04-03T05:33:11.777Z,64.53
2019-04-03T05:34:12.483Z,64.22
2019-04-03T05:35:10.732Z,64.42
2019-04-03T05:36:10.842Z,64.22
2019-04-03T05:37:11.748Z,64.32
2019-04-03T05:38:10.804Z,63.70
2019-04-03T05:39:10.659Z,63.40
2019-04-03T05:40:10.647Z,63.50
2019-04-03T05:41:10.656Z,63.91
2019-04-03T05:42:10.643Z,63.91
2019-04-03T05:43:10.608Z,63.60
2019-04-03T05:44:10.598Z,63.50
2019-04-03T05:45:10.608Z,63.50
2019-04-03T05:46:10.573Z,63.29
2019-04-03T05:47:10.694Z,62.99
2019-04-03T05:48:13.213Z,63.40
2019-04-03T05:49:11.000Z,63.47
2019-04-03T05:50:10.535Z,63.50
2019-04-03T05:51:10.540Z,63.78
2019-04-03T05:52:10.561Z,62.85
2019-04-03T05:53:10.508Z,63.17
2019-04-03T05:54:10.586Z,63.06
2019-04-03T05:55:10.472Z,63.17
2019-04-03T05:56:12.593Z,63.37
2019-04-03T05:57:13.357Z,63.06
2019-04-03T05:58:10.448Z,62.76
2019-04-03T05:59:10.453Z,62.73
2019-04-03T06:00:10.418Z,62.85
2019-04-03T06:01:11.712Z,62.83
2019-04-03T06:02:16.191Z,62.65
2019-04-03T06:03:11.406Z,62.55
2019-04-03T06:04:10.636Z,62.62
2019-04-03T06:05:12.727Z,62.73
2019-04-03T06:06:10.409Z,62.21
2019-04-03T06:07:10.347Z,62.21
2019-04-03T06:08:10.555Z,62.32
2019-04-03T06:09:10.425Z,62.32
2019-04-03T06:10:10.509Z,61.29
2019-04-03T06:11:10.360Z,61.29
2019-04-03T06:12:12.997Z,61.80
2019-04-03T06:13:10.353Z,61.70
2019-04-03T06:14:10.281Z,61.91
2019-04-03T06:15:10.406Z,61.16
2019-04-03T06:16:10.290Z,61.06
2019-04-03T06:17:10.247Z,61.06
2019-04-03T06:18:10.487Z,61.57
2019-04-03T06:19:10.381Z,61.36
2019-04-03T06:20:11.352Z,61.06
2019-04-03T06:21:10.439Z,61.36
2019-04-03T06:22:10.771Z,61.26
2019-04-03T06:23:10.213Z,61.36
2019-04-03T06:24:10.171Z,61.06
2019-04-03T06:25:13.411Z,60.96
2019-04-03T06:26:10.141Z,60.96
2019-04-03T06:27:10.591Z,61.06
2019-04-03T06:28:12.626Z,60.85
2019-04-03T06:29:10.141Z,60.83
2019-04-03T06:30:10.105Z,60.85
2019-04-03T06:31:10.109Z,60.65
2019-04-03T06:32:10.081Z,60.42
2019-04-03T06:33:10.099Z,60.75
2019-04-03T06:34:10.091Z,60.96
2019-04-03T06:35:10.137Z,60.52
2019-04-03T06:36:10.059Z,60.52
2019-04-03T06:37:10.143Z,60.42
2019-04-03T06:38:10.207Z,60.31
2019-04-03T06:39:10.058Z,60.31
2019-04-03T06:40:10.005Z,60.31
2019-04-03T06:41:09.984Z,59.78
2019-04-03T06:42:13.035Z,59.06
2019-04-03T06:43:09.973Z,59.16
2019-04-03T06:44:09.985Z,59.16
2019-04-03T06:45:10.301Z,59.50
2019-04-03T06:46:10.190Z,59.57
2019-04-03T06:47:09.915Z,59.37
2019-04-03T06:48:09.965Z,59.39
2019-04-03T06:49:10.073Z,59.19
2019-04-03T06:50:11.872Z,59.70
2019-04-03T06:51:09.882Z,59.60
2019-04-03T06:52:09.929Z,59.39
2019-04-03T06:53:09.871Z,59.60
2019-04-03T06:54:10.005Z,59.19
2019-04-03T06:55:09.828Z,59.57
2019-04-03T06:56:09.825Z,59.47
2019-04-03T06:57:09.822Z,58.96
2019-04-03T06:58:11.617Z,59.47
2019-04-03T06:59:09.816Z,59.27
2019-04-03T07:00:09.803Z,59.16
2019-04-03T07:01:09.764Z,59.27
2019-04-03T07:02:09.774Z,58.96
2019-04-03T07:03:09.758Z,58.75
2019-04-03T07:04:09.841Z,59.64
2019-04-03T07:05:10.910Z,58.93
2019-04-03T07:06:09.705Z,59.03
2019-04-03T07:07:09.701Z,58.62
2019-04-03T07:08:09.696Z,58.32
2019-04-03T07:09:21.814Z,58.73
2019-04-03T07:10:23.420Z,59.14
2019-04-03T07:11:22.418Z,58.42
2019-04-03T07:12:10.667Z,58.50
2019-04-03T07:13:09.657Z,58.39
2019-04-03T07:14:09.647Z,58.39
2019-04-03T07:15:09.871Z,58.39
2019-04-03T07:16:09.606Z,58.50
2019-04-03T07:17:09.646Z,58.39
2019-04-03T07:18:09.578Z,58.06
2019-04-03T07:19:09.819Z,57.65
2019-04-03T07:20:14.158Z,57.75
2019-04-03T07:21:10.612Z,57.75
2019-04-03T07:22:09.742Z,57.55
2019-04-03T07:23:09.538Z,57.55
2019-04-03T07:24:09.725Z,57.65
2019-04-03T07:25:09.515Z,57.12
2019-04-03T07:26:09.487Z,57.45
2019-04-03T07:27:09.485Z,57.12
2019-04-03T07:28:09.539Z,56.60
2019-04-03T07:29:11.481Z,57.12
2019-04-03T07:30:09.547Z,56.50
2019-04-03T07:31:09.650Z,56.30
2019-04-03T07:32:09.419Z,56.48
2019-04-03T07:33:09.698Z,56.58
2019-04-03T07:34:09.409Z,55.76
2019-04-03T07:35:10.359Z,55.76
2019-04-03T07:36:11.330Z,55.74
2019-04-03T07:37:09.378Z,55.35
2019-04-03T07:38:09.365Z,55.43
2019-04-03T07:39:11.032Z,55.33
2019-04-03T07:40:09.383Z,55.02
2019-04-03T07:41:09.419Z,55.02
2019-04-03T07:42:09.559Z,55.33
2019-04-03T07:43:09.339Z,55.13
2019-04-03T07:44:09.299Z,54.61
2019-04-03T07:45:09.300Z,54.72
2019-04-03T07:46:09.297Z,55.20
2019-04-03T07:47:09.397Z,55.00
2019-04-03T07:48:09.523Z,54.28
2019-04-03T07:49:09.825Z,53.80
2019-04-03T07:50:11.228Z,54.69
2019-04-03T07:51:09.242Z,54.59
2019-04-03T07:52:09.203Z,54.69
2019-04-03T07:53:09.213Z,54.39
2019-04-03T07:54:09.413Z,53.88
2019-04-03T07:55:09.215Z,54.28
2019-04-03T07:56:09.177Z,54.39
2019-04-03T07:57:10.368Z,54.16
2019-04-03T07:58:09.134Z,54.26
2019-04-03T07:59:09.124Z,53.55
2019-04-03T08:00:09.154Z,53.65
2019-04-03T08:01:10.892Z,54.05
2019-04-03T08:02:11.921Z,54.05
2019-04-03T08:03:09.220Z,53.55
2019-04-03T08:04:09.071Z,54.24
2019-04-03T08:05:09.319Z,53.42
2019-04-03T08:06:09.073Z,53.22
2019-04-03T08:07:09.042Z,52.30
2019-04-03T08:08:09.046Z,53.22
2019-04-03T08:09:09.926Z,52.58
2019-04-03T08:10:09.008Z,52.91
2019-04-03T08:11:09.011Z,53.32
2019-04-03T08:12:08.984Z,52.78
2019-04-03T08:13:08.984Z,52.78
2019-04-03T08:14:09.848Z,53.39
2019-04-03T08:15:09.247Z,52.89
2019-04-03T08:16:08.969Z,53.09
2019-04-03T08:17:08.934Z,52.48
2019-04-03T08:18:08.918Z,52.28
2019-04-03T08:19:08.904Z,52.68
2019-04-03T08:20:09.210Z,52.78
2019-04-03T08:21:08.910Z,53.09
2019-04-03T08:22:08.886Z,52.98
2019-04-03T08:23:08.863Z,52.68
2019-04-03T08:24:08.858Z,52.28
2019-04-03T08:25:11.787Z,53.09
2019-04-03T08:26:11.431Z,53.19
2019-04-03T08:27:09.241Z,52.78
2019-04-03T08:28:08.824Z,52.25
2019-04-03T08:29:08.795Z,53.06
2019-04-03T08:30:08.875Z,52.25
2019-04-03T08:31:11.496Z,52.25
2019-04-03T08:32:08.784Z,52.15
2019-04-03T08:33:16.238Z,52.66
2019-04-03T08:34:17.095Z,52.56
2019-04-03T08:35:20.327Z,52.56
2019-04-03T08:36:09.753Z,52.96
2019-04-03T08:37:10.119Z,51.44
2019-04-03T08:38:08.708Z,52.96
2019-04-03T08:39:08.697Z,51.31
2019-04-03T08:40:08.691Z,51.31
2019-04-03T08:41:08.814Z,51.51
2019-04-03T08:42:08.679Z,50.90
2019-04-03T08:43:08.658Z,52.03
2019-04-03T08:44:09.235Z,51.59
2019-04-03T08:45:08.633Z,51.18
2019-04-03T08:46:10.815Z,51.18
2019-04-03T08:47:08.649Z,50.88
2019-04-03T08:48:08.605Z,51.09
2019-04-03T08:49:08.594Z,50.58
2019-04-03T08:50:08.569Z,50.35
2019-04-03T08:51:08.583Z,50.37
2019-04-03T08:52:08.573Z,50.45
2019-04-03T08:53:08.911Z,50.25
2019-04-03T08:54:10.268Z,50.15
2019-04-03T08:55:08.509Z,49.44
2019-04-03T08:56:08.510Z,49.84
2019-04-03T08:57:08.507Z,49.41
2019-04-03T08:58:08.487Z,49.31
2019-04-03T08:59:08.481Z,49.62
2019-04-03T09:00:08.596Z,49.31
2019-04-03T09:01:10.750Z,49.21
2019-04-03T09:02:11.968Z,49.52
2019-04-03T09:03:08.436Z,48.48
2019-04-03T09:04:08.429Z,49.69
2019-04-03T09:05:08.421Z,49.80
2019-04-03T09:06:08.408Z,49.39
2019-04-03T09:07:08.440Z,49.90
2019-04-03T09:08:08.629Z,49.49
2019-04-03T09:09:08.382Z,49.59
2019-04-03T09:10:08.358Z,48.99
2019-04-03T09:11:08.349Z,48.18
2019-04-03T09:12:08.355Z,48.18
2019-04-03T09:13:16.942Z,47.95
2019-04-03T09:14:09.313Z,47.95
2019-04-03T09:15:08.320Z,47.64
2019-04-03T09:16:10.124Z,47.95
2019-04-03T09:17:08.475Z,47.64
2019-04-03T09:18:08.271Z,47.03
2019-04-03T09:19:10.152Z,47.24
2019-04-03T09:20:08.257Z,47.34
2019-04-03T09:21:08.479Z,46.83
2019-04-03T09:22:08.249Z,47.24
2019-04-03T09:23:08.217Z,47.03
2019-04-03T09:24:08.290Z,46.91
2019-04-03T09:25:08.197Z,46.71
2019-04-03T09:26:08.194Z,46.83
2019-04-03T09:27:09.799Z,47.02
2019-04-03T09:28:08.981Z,45.59
2019-04-03T09:29:08.171Z,45.90
2019-04-03T09:30:08.131Z,45.78
2019-04-03T09:31:08.149Z,45.07
2019-04-03T09:32:08.143Z,45.57
2019-04-03T09:33:08.115Z,45.78
2019-04-03T09:34:08.118Z,45.75
2019-04-03T09:35:08.170Z,45.75
2019-04-03T09:36:08.073Z,45.96
2019-04-03T09:37:08.081Z,45.15
2019-04-03T09:38:09.543Z,45.35
2019-04-03T09:39:08.037Z,44.95
2019-04-03T09:40:08.281Z,45.55
2019-04-03T09:41:08.031Z,45.35
2019-04-03T09:42:08.152Z,45.04
2019-04-03T09:43:08.000Z,45.04
2019-04-03T09:44:08.016Z,45.55
2019-04-03T09:45:08.320Z,45.25
2019-04-03T09:46:07.968Z,45.35
2019-04-03T09:47:07.976Z,45.94
2019-04-03T09:48:10.943Z,44.95
2019-04-03T09:49:08.430Z,44.62
2019-04-03T09:50:07.927Z,44.32
2019-04-03T09:51:09.640Z,44.32
2019-04-03T09:52:08.081Z,44.12
2019-04-03T09:53:07.884Z,44.62
2019-04-03T09:54:08.175Z,44.12
2019-04-03T09:55:07.880Z,44.40
2019-04-03T09:56:08.564Z,44.40
2019-04-03T09:57:07.882Z,43.89
2019-04-03T09:58:07.912Z,44.58
2019-04-03T09:59:08.146Z,44.17
2019-04-03T10:00:09.902Z,44.60
2019-04-03T10:01:07.813Z,44.49
2019-04-03T10:02:07.834Z,44.70
2019-04-03T10:03:07.773Z,44.48
2019-04-03T10:04:08.557Z,43.87
2019-04-03T10:05:07.759Z,44.17
2019-04-03T10:06:07.760Z,44.37
2019-04-03T10:07:07.758Z,44.07
2019-04-03T10:08:08.907Z,43.75
2019-04-03T10:09:07.734Z,43.67
2019-04-03T10:10:07.830Z,43.77
2019-04-03T10:11:08.261Z,43.57
2019-04-03T10:12:07.707Z,44.17
2019-04-03T10:13:07.725Z,43.77
2019-04-03T10:14:07.661Z,43.77
2019-04-03T10:15:07.656Z,43.46
2019-04-03T10:16:07.740Z,43.24
2019-04-03T10:17:07.820Z,43.65
2019-04-03T10:18:09.599Z,43.44
2019-04-03T10:19:07.598Z,43.04
2019-04-03T10:20:07.597Z,43.14
2019-04-03T10:21:07.839Z,43.65
2019-04-03T10:22:07.623Z,43.24
2019-04-03T10:23:07.595Z,42.84
2019-04-03T10:24:07.578Z,42.23
2019-04-03T10:25:07.535Z,42.92
2019-04-03T10:26:08.750Z,42.52
2019-04-03T10:27:10.784Z,42.61
2019-04-03T10:28:07.550Z,42.41
2019-04-03T10:29:07.538Z,42.72
2019-04-03T10:30:07.536Z,43.23
2019-04-03T10:31:07.472Z,43.02
2019-04-03T10:32:07.526Z,43.40
2019-04-03T10:33:07.706Z,42.49
2019-04-03T10:34:07.446Z,43.00
2019-04-03T10:35:08.185Z,42.80
2019-04-03T10:36:10.318Z,42.49
2019-04-03T10:37:07.400Z,42.70
2019-04-03T10:38:07.800Z,42.90
2019-04-03T10:39:07.384Z,41.89
2019-04-03T10:40:07.384Z,41.36
2019-04-03T10:41:07.416Z,41.36
2019-04-03T10:42:07.347Z,41.75
2019-04-03T10:43:07.400Z,41.65
2019-04-03T10:44:09.347Z,41.85
2019-04-03T10:45:07.320Z,41.95
2019-04-03T10:46:07.323Z,41.02
2019-04-03T10:47:07.290Z,41.35
2019-04-03T10:48:07.365Z,40.94
2019-04-03T10:49:07.309Z,41.35
2019-04-03T10:50:07.331Z,39.94
2019-04-03T10:51:09.411Z,40.34
2019-04-03T10:52:07.299Z,40.62
2019-04-03T10:53:07.585Z,40.64
2019-04-03T10:54:07.617Z,40.82
2019-04-03T10:55:07.210Z,40.40
2019-04-03T10:56:07.936Z,40.70
2019-04-03T10:57:07.425Z,40.70
2019-04-03T10:58:08.561Z,40.10
2019-04-03T10:59:11.465Z,40.40
2019-04-03T11:00:08.170Z,40.10
2019-04-03T11:01:07.154Z,40.50
2019-04-03T11:02:07.443Z,40.10
2019-04-03T11:03:07.390Z,40.50
2019-04-03T11:04:07.147Z,39.90
2019-04-03T11:05:07.183Z,39.90
2019-04-03T11:06:07.240Z,39.98
2019-04-03T11:07:07.098Z,39.98
2019-04-03T11:08:07.084Z,38.55
2019-04-03T11:09:07.078Z,38.57
2019-04-03T11:10:07.067Z,39.65
2019-04-03T11:11:07.035Z,39.43
2019-04-03T11:12:09.702Z,39.03
2019-04-03T11:13:07.014Z,38.53
2019-04-03T11:14:08.057Z,38.53
2019-04-03T11:15:07.005Z,39.14
2019-04-03T11:16:07.086Z,38.51
2019-04-03T11:17:07.120Z,38.90
2019-04-03T11:18:07.024Z,37.98
2019-04-03T11:19:07.486Z,37.46
2019-04-03T11:20:09.132Z,36.75
2019-04-03T11:21:06.958Z,37.04
2019-04-03T11:22:07.199Z,37.02
2019-04-03T11:23:08.302Z,35.60
2019-04-03T11:24:07.349Z,35.48
2019-04-03T11:25:06.953Z,35.48
2019-04-03T11:26:06.970Z,35.06
2019-04-03T11:27:07.178Z,34.64
2019-04-03T11:28:06.995Z,34.71
2019-04-03T11:29:08.828Z,33.39
2019-04-03T11:30:07.114Z,33.68
2019-04-03T11:31:07.147Z,33.76
2019-04-03T11:32:08.509Z,33.66
2019-04-03T11:33:06.958Z,32.73
2019-04-03T11:34:07.226Z,32.02
2019-04-03T11:35:06.843Z,31.72
2019-04-03T11:36:06.787Z,31.70
2019-04-03T11:37:06.804Z,32.12
2019-04-03T11:38:14.089Z,32.32
2019-04-03T11:39:13.428Z,32.03
2019-04-03T11:40:07.802Z,32.35
2019-04-03T11:41:14.917Z,32.35
2019-04-03T11:42:07.754Z,31.95
2019-04-03T11:43:06.756Z,32.45
2019-04-03T11:44:06.785Z,32.55
2019-04-03T11:45:06.916Z,33.04
2019-04-03T11:46:06.710Z,32.67
2019-04-03T11:47:06.646Z,32.26
2019-04-03T11:48:06.920Z,33.18
2019-04-03T11:49:06.748Z,33.28
2019-04-03T11:50:06.819Z,32.68
2019-04-03T11:51:06.648Z,33.25
2019-04-03T11:52:06.648Z,33.23
2019-04-03T11:53:07.715Z,32.40
2019-04-03T11:54:07.899Z,31.10
2019-04-03T11:55:09.899Z,31.10
2019-04-03T11:56:06.605Z,31.51
2019-04-03T11:57:06.566Z,31.12
2019-04-03T11:58:06.605Z,31.85
2019-04-03T11:59:06.546Z,32.14
2019-04-03T12:00:06.516Z,32.20
2019-04-03T12:01:06.656Z,30.69
2019-04-03T12:02:07.887Z,29.67
2019-04-03T12:03:06.649Z,29.24
2019-04-03T12:04:06.510Z,29.16
2019-04-03T12:05:06.661Z,30.10
2019-04-03T12:06:06.777Z,30.59
2019-04-03T12:07:06.534Z,30.29
2019-04-03T12:08:06.460Z,30.08
2019-04-03T12:09:06.680Z,29.27
2019-04-03T12:10:06.402Z,29.05
2019-04-03T12:11:07.423Z,28.97
2019-04-03T12:12:09.451Z,29.93
2019-04-03T12:13:06.960Z,30.95
2019-04-03T12:14:06.380Z,31.57
2019-04-03T12:15:06.622Z,31.67
2019-04-03T12:16:06.435Z,31.90
2019-04-03T12:17:06.655Z,31.79
2019-04-03T12:18:06.565Z,31.85
2019-04-03T12:19:06.510Z,30.51
2019-04-03T12:20:08.785Z,29.97
2019-04-03T12:21:07.429Z,29.95
2019-04-03T12:22:06.294Z,28.74
2019-04-03T12:23:06.277Z,28.74
2019-04-03T12:24:06.273Z,29.46
2019-04-03T12:25:06.276Z,29.98
2019-04-03T12:26:06.332Z,29.58
2019-04-03T12:27:06.230Z,29.80
2019-04-03T12:28:07.346Z,30.49
2019-04-03T12:29:07.735Z,30.31
2019-04-03T12:30:06.211Z,30.91
2019-04-03T12:31:06.274Z,30.72
2019-04-03T12:32:08.331Z,30.83
2019-04-03T12:33:06.178Z,31.54
2019-04-03T12:34:06.843Z,32.35
2019-04-03T12:35:07.289Z,32.48
2019-04-03T12:36:07.260Z,31.88
2019-04-03T12:37:06.164Z,33.00
2019-04-03T12:38:06.116Z,32.70
2019-04-03T12:39:06.352Z,33.09
2019-04-03T12:40:06.096Z,32.50
2019-04-03T12:41:06.128Z,33.71
2019-04-03T12:42:08.400Z,33.11
2019-04-03T12:43:06.526Z,33.43
2019-04-03T12:44:06.051Z,33.53
2019-04-03T12:45:06.282Z,34.03
2019-04-03T12:46:06.321Z,33.62
2019-04-03T12:47:12.179Z,34.12
2019-04-03T12:48:07.019Z,33.31
2019-04-03T12:49:07.337Z,33.41
2019-04-03T12:50:06.663Z,33.11
2019-04-03T12:51:06.451Z,33.41
2019-04-03T12:52:06.283Z,33.31